Buffalo, MN

1:42 PM CST on February 22, 2018 (GMT -0600)
Buffalo

Weather History for KCFE - October, 2012

Change the Weather History Date:

Saturday, October 6, 2012

  Actual Average (KMIC) Record (KMIC)
Temperature  
Mean Temperature 37 °F -  
Max Temperature 43 °F 62 °F 86 °F (2007)
Min Temperature 31 °F 39 °F 26 °F (2001)
Degree Days  
Heating Degree Days 28    
Moisture  
Dew Point 26 °F    
Average Humidity 65    
Maximum Humidity 84    
Minimum Humidity 42    
Precipitation  
Precipitation 0.00 in - - ()
Sea Level Pressure  
Sea Level Pressure 30.24 in    
Wind  
Wind Speed 9 mph (NW)    
Max Wind Speed 15 mph    
Max Gust Speed 21 mph    
Visibility 10 miles    
Events      
Averages and records for this station are not official NWS values.
T = Trace of Precipitation, MM = Missing Value Source: NWS Daily Summary

Daily Weather History Graph

Daily Weather History Graph

Search for Another Location

Airport or City:

Trip Planner

Search our weather history database for the weather conditions in past years. The results will help you decide how hot, cold, wet, or windy it might be!

Date:

Astronomy

Oct. 06, 2012 Rise Set
Actual Time 7:20 AM CDT 6:45 PM CDT
Civil Twilight 6:50 AM CDT 7:14 PM CDT
Nautical Twilight 6:16 AM CDT 7:48 PM CDT
Astronomical Twilight 5:42 AM CDT 8:23 PM CDT
Moon 10:49 PM CDT (10/6) 1:27 PM CDT (10/6)
Length of Visible Light 12h 23m
Length of Day
11h 25m
Waning Gibbous, 65% of the Moon is Illuminated
Oct 6
Waning Gibbous
Oct 8
Last Quarter
Oct 15
New
Oct 21
First Quarter
Oct 29
Full

Hourly Weather History & Observations

Time (CDT) Temp. Windchill Dew Point Humidity Pressure Visibility Wind Dir Wind Speed Gust Speed Precip Events Conditions
12:13 AM 36.5 °F 28.7 °F 27.3 °F 69% 30.17 in 10.0 mi West 11.5 mph 17.3 mph N/A   Overcast
12:33 AM 36.5 °F 28.2 °F 27.5 °F 70% 30.17 in 10.0 mi WNW 12.7 mph 20.7 mph N/A   Overcast
12:54 AM 36.5 °F 27.4 °F 28.0 °F 71% 30.17 in 10.0 mi WNW 15.0 mph 20.7 mph N/A   Overcast
1:13 AM 36.5 °F 28.7 °F 28.2 °F 72% 30.17 in 10.0 mi WNW 11.5 mph - N/A   Overcast
1:54 AM 36.5 °F 28.7 °F 28.9 °F 74% 30.17 in 10.0 mi WNW 11.5 mph - N/A   Overcast
2:13 AM 36.5 °F 29.7 °F 29.1 °F 75% 30.17 in 10.0 mi WNW 9.2 mph - N/A   Overcast
2:33 AM 36.1 °F 29.9 °F 29.1 °F 76% 30.17 in 10.0 mi WNW 8.1 mph 16.1 mph N/A   Overcast
2:53 AM 36.1 °F 29.9 °F 29.3 °F 76% 30.18 in 10.0 mi WNW 8.1 mph - N/A   Overcast
3:13 AM 36.0 °F 29.0 °F 29.1 °F 76% 30.17 in 10.0 mi WNW 9.2 mph - N/A   Overcast
3:34 AM 36.0 °F 28.0 °F 29.3 °F 77% 30.18 in 10.0 mi NW 11.5 mph 16.1 mph N/A   Overcast
3:53 AM 35.8 °F 27.8 °F 29.3 °F 77% 30.18 in 10.0 mi NW 11.5 mph 19.6 mph N/A   Overcast
4:34 AM 34.7 °F 27.5 °F 29.7 °F 82% 30.19 in 10.0 mi WNW 9.2 mph - N/A   Clear
4:53 AM 35.2 °F 28.8 °F 30.2 °F 82% 30.19 in 10.0 mi WNW 8.1 mph - N/A   Mostly Cloudy
5:13 AM 35.2 °F 27.6 °F 30.0 °F 81% 30.19 in 10.0 mi NW 10.4 mph 17.3 mph N/A   Mostly Cloudy
5:34 AM 34.9 °F 29.0 °F 29.8 °F 82% 30.20 in 10.0 mi WNW 6.9 mph - N/A   Mostly Cloudy
5:53 AM 34.0 °F 27.2 °F 29.7 °F 84% 30.20 in 10.0 mi NW 8.1 mph - N/A   Scattered Clouds
6:13 AM 34.7 °F 28.8 °F 29.8 °F 82% 30.21 in 10.0 mi NW 6.9 mph 16.1 mph N/A   Mostly Cloudy
6:34 AM 34.7 °F 28.8 °F 30.0 °F 83% 30.22 in 10.0 mi WNW 6.9 mph - N/A   Mostly Cloudy
6:53 AM 35.2 °F 28.1 °F 30.2 °F 82% 30.22 in 10.0 mi WNW 9.2 mph - N/A   Overcast
7:13 AM 35.6 °F 28.0 °F 30.0 °F 80% 30.23 in 10.0 mi NW 10.4 mph - N/A   Overcast
7:34 AM 34.9 °F 28.3 °F 29.3 °F 80% 30.24 in 10.0 mi NW 8.1 mph - N/A   Mostly Cloudy
7:53 AM 33.8 °F 26.4 °F 29.3 °F 84% 30.24 in 10.0 mi NW 9.2 mph - N/A   Scattered Clouds
8:14 AM 34.9 °F 28.3 °F 29.5 °F 81% 30.25 in 10.0 mi NW 8.1 mph - N/A   Scattered Clouds
8:33 AM 35.6 °F 29.2 °F 30.0 °F 80% 30.26 in 10.0 mi NW 8.1 mph - N/A   Scattered Clouds
9:14 AM 35.8 °F 28.3 °F 29.7 °F 78% 30.27 in 10.0 mi NW 10.4 mph 16.1 mph N/A   Overcast
9:33 AM 36.5 °F 30.3 °F 28.8 °F 74% 30.29 in 10.0 mi NW 8.1 mph 16.1 mph N/A   Overcast
9:53 AM 36.7 °F 31.2 °F 28.0 °F 71% 30.29 in 10.0 mi NNW 6.9 mph - N/A   Overcast
10:14 AM 38.3 °F 30.9 °F 26.8 °F 63% 30.29 in 10.0 mi NNW 11.5 mph 18.4 mph N/A   Overcast
10:33 AM 38.3 °F 30.5 °F 25.3 °F 60% 30.30 in 10.0 mi NW 12.7 mph 17.3 mph N/A   Overcast
10:53 AM 38.3 °F 32.5 °F 25.0 °F 59% 30.30 in 10.0 mi NW 8.1 mph - N/A   Overcast
11:13 AM 38.5 °F 31.1 °F 25.5 °F 60% 30.30 in 10.0 mi NW 11.5 mph - N/A   Overcast
11:33 AM 39.2 °F 31.6 °F 24.6 °F 56% 30.30 in 10.0 mi NW 12.7 mph 18.4 mph N/A   Overcast
11:53 AM 39.2 °F 31.6 °F 23.4 °F 53% 30.30 in 10.0 mi NW 12.7 mph 16.1 mph N/A   Overcast
12:13 PM 39.4 °F 32.7 °F 24.3 °F 55% 30.30 in 10.0 mi NW 10.4 mph - N/A   Overcast
12:33 PM 40.5 °F 32.8 °F 24.3 °F 52% 30.30 in 10.0 mi NW 13.8 mph 19.6 mph N/A   Overcast
12:53 PM 41.0 °F 34.3 °F 22.6 °F 48% 30.30 in 10.0 mi WNW 11.5 mph 16.1 mph N/A   Overcast
1:13 PM 40.8 °F 36.2 °F 22.8 °F 49% 30.29 in 10.0 mi NW 6.9 mph - N/A   Overcast
1:33 PM 41.0 °F 34.3 °F 22.6 °F 48% 30.29 in 10.0 mi NW 11.5 mph - N/A   Overcast
1:53 PM 41.7 °F 36.7 °F 22.8 °F 47% 30.28 in 10.0 mi NW 8.1 mph - N/A   Overcast
2:14 PM 42.6 °F 37.8 °F 22.5 °F 45% 30.27 in 10.0 mi West 8.1 mph - N/A   Overcast
2:33 PM 42.8 °F 39.3 °F 21.9 °F 44% 30.26 in 10.0 mi North 5.8 mph - N/A   Overcast
2:53 PM 42.1 °F 37.7 °F 22.8 °F 46% 30.26 in 10.0 mi NW 6.9 mph - N/A   Overcast
3:14 PM 41.7 °F 36.7 °F 23.2 °F 48% 30.26 in 10.0 mi West 8.1 mph - N/A   Overcast
3:33 PM 42.3 °F 38.6 °F 23.4 °F 47% 30.25 in 10.0 mi NW 5.8 mph - N/A   Overcast
3:53 PM 42.8 °F 37.5 °F 21.2 °F 42% 30.25 in 10.0 mi North 9.2 mph 16.1 mph N/A   Overcast
4:14 PM 42.8 °F 37.0 °F 22.6 °F 45% 30.24 in 10.0 mi NNW 10.4 mph - N/A   Overcast
4:33 PM 42.4 °F 37.5 °F 22.8 °F 46% 30.24 in 10.0 mi NW 8.1 mph - N/A   Overcast
4:53 PM 42.3 °F 37.9 °F 22.8 °F 46% 30.24 in 10.0 mi NNW 6.9 mph - N/A   Overcast
5:14 PM 43.0 °F 40.3 °F 23.2 °F 46% 30.24 in 10.0 mi NW 4.6 mph - N/A   Mostly Cloudy
5:33 PM 42.8 °F 38.6 °F 23.0 °F 46% 30.24 in 10.0 mi NW 6.9 mph - N/A   Mostly Cloudy
5:53 PM 43.3 °F 39.9 °F 23.0 °F 45% 30.24 in 10.0 mi NNW 5.8 mph - N/A   Overcast
6:14 PM 42.8 °F 39.3 °F 23.0 °F 46% 30.24 in 10.0 mi NW 5.8 mph - N/A   Overcast
6:33 PM 41.9 °F 38.2 °F 22.8 °F 47% 30.24 in 10.0 mi NW 5.8 mph - N/A   Mostly Cloudy
6:53 PM 40.6 °F 38.6 °F 22.5 °F 48% 30.24 in 10.0 mi NW 3.5 mph - N/A   Clear
7:14 PM 39.6 °F - 22.3 °F 50% 30.24 in 10.0 mi Calm Calm - N/A   Clear
7:33 PM 39.2 °F - 23.0 °F 52% 30.24 in 10.0 mi Calm Calm - N/A   Clear
7:53 PM 35.6 °F - 22.5 °F 59% 30.25 in 10.0 mi Calm Calm - N/A   Scattered Clouds
8:14 PM 34.9 °F - 22.8 °F 61% 30.25 in 10.0 mi Calm Calm - N/A   Scattered Clouds
8:33 PM 33.8 °F - 23.0 °F 65% 30.25 in 10.0 mi Calm Calm - N/A   Scattered Clouds
8:53 PM 33.8 °F - 22.5 °F 63% 30.25 in 10.0 mi Calm Calm - N/A   Clear
9:14 PM 32.9 °F - 26.8 °F 78% 30.25 in 10.0 mi Calm Calm - N/A   Clear
9:33 PM 32.9 °F - 27.1 °F 79% 30.24 in 10.0 mi Calm Calm - N/A   Clear
9:53 PM 31.8 °F - 24.1 °F 73% 30.25 in 10.0 mi Calm Calm - N/A   Clear
10:13 PM 31.8 °F - 24.8 °F 75% 30.25 in 10.0 mi Calm Calm - N/A   Clear
10:33 PM 32.9 °F - 25.5 °F 74% 30.25 in 10.0 mi Calm Calm - N/A   Clear
10:53 PM 31.5 °F 28.1 °F 24.8 °F 76% 30.25 in 10.0 mi West 3.5 mph - N/A   Clear
11:13 PM 34.0 °F 28.8 °F 25.7 °F 72% 30.25 in 10.0 mi West 5.8 mph - N/A   Clear
11:33 PM 32.9 °F 26.7 °F 25.5 °F 74% 30.24 in 10.0 mi West 6.9 mph - N/A   Clear
11:54 PM 32.9 °F 28.5 °F 26.1 °F 76% 30.23 in 10.0 mi WSW 4.6 mph - N/A   Clear